sensor_id;sensor_type;location;lat;lon;timestamp;P1;durP1;ratioP1;P2;durP2;ratioP2
17398;SDS011;8817;48.170;8.592;2023-02-03T00:01:53;4.57;;;4.40;;
17398;SDS011;8817;48.170;8.592;2023-02-03T00:04:20;4.10;;;4.10;;
17398;SDS011;8817;48.170;8.592;2023-02-03T00:06:47;4.30;;;4.20;;
17398;SDS011;8817;48.170;8.592;2023-02-03T00:09:16;4.40;;;4.30;;
17398;SDS011;8817;48.170;8.592;2023-02-03T00:11:43;4.33;;;4.20;;
17398;SDS011;8817;48.170;8.592;2023-02-03T00:14:10;4.30;;;4.20;;
17398;SDS011;8817;48.170;8.592;2023-02-03T00:16:37;4.00;;;4.00;;
17398;SDS011;8817;48.170;8.592;2023-02-03T00:19:04;4.20;;;4.10;;
17398;SDS011;8817;48.170;8.592;2023-02-03T00:21:38;4.40;;;4.30;;
17398;SDS011;8817;48.170;8.592;2023-02-03T00:24:17;4.80;;;4.70;;
17398;SDS011;8817;48.170;8.592;2023-02-03T00:26:47;4.37;;;4.27;;
17398;SDS011;8817;48.170;8.592;2023-02-03T00:29:14;4.40;;;4.30;;
17398;SDS011;8817;48.170;8.592;2023-02-03T00:31:42;4.60;;;4.50;;
17398;SDS011;8817;48.170;8.592;2023-02-03T00:34:09;4.40;;;4.30;;
17398;SDS011;8817;48.170;8.592;2023-02-03T00:36:36;4.20;;;4.20;;
17398;SDS011;8817;48.170;8.592;2023-02-03T00:39:03;4.10;;;4.00;;
17398;SDS011;8817;48.170;8.592;2023-02-03T00:41:31;3.97;;;3.97;;
17398;SDS011;8817;48.170;8.592;2023-02-03T00:43:58;4.30;;;4.20;;
17398;SDS011;8817;48.170;8.592;2023-02-03T00:46:25;4.40;;;4.30;;
17398;SDS011;8817;48.170;8.592;2023-02-03T00:48:52;4.57;;;4.47;;
17398;SDS011;8817;48.170;8.592;2023-02-03T00:51:18;4.40;;;4.30;;
17398;SDS011;8817;48.170;8.592;2023-02-03T00:53:46;4.40;;;4.30;;
17398;SDS011;8817;48.170;8.592;2023-02-03T00:56:13;4.53;;;4.33;;
17398;SDS011;8817;48.170;8.592;2023-02-03T00:58:41;4.40;;;4.30;;
17398;SDS011;8817;48.170;8.592;2023-02-03T01:01:08;4.70;;;4.60;;
17398;SDS011;8817;48.170;8.592;2023-02-03T01:03:35;4.53;;;4.43;;
17398;SDS011;8817;48.170;8.592;2023-02-03T01:06:09;4.43;;;4.33;;
17398;SDS011;8817;48.170;8.592;2023-02-03T01:08:37;4.70;;;4.60;;
17398;SDS011;8817;48.170;8.592;2023-02-03T01:11:05;4.60;;;4.50;;
17398;SDS011;8817;48.170;8.592;2023-02-03T01:13:33;4.30;;;4.20;;
17398;SDS011;8817;48.170;8.592;2023-02-03T01:16:01;4.40;;;4.30;;
17398;SDS011;8817;48.170;8.592;2023-02-03T01:18:29;4.27;;;4.17;;
17398;SDS011;8817;48.170;8.592;2023-02-03T01:20:55;4.20;;;4.17;;
17398;SDS011;8817;48.170;8.592;2023-02-03T01:23:22;4.57;;;4.27;;
17398;SDS011;8817;48.170;8.592;2023-02-03T01:25:49;4.70;;;4.60;;
17398;SDS011;8817;48.170;8.592;2023-02-03T01:28:16;4.23;;;4.23;;
17398;SDS011;8817;48.170;8.592;2023-02-03T01:30:43;4.50;;;4.40;;
17398;SDS011;8817;48.170;8.592;2023-02-03T01:33:11;4.10;;;4.10;;
17398;SDS011;8817;48.170;8.592;2023-02-03T01:35:38;4.30;;;4.20;;
17398;SDS011;8817;48.170;8.592;2023-02-03T01:38:05;4.20;;;4.20;;
17398;SDS011;8817;48.170;8.592;2023-02-03T01:40:32;4.10;;;4.10;;
17398;SDS011;8817;48.170;8.592;2023-02-03T01:42:58;4.40;;;4.30;;
17398;SDS011;8817;48.170;8.592;2023-02-03T01:45:25;4.90;;;4.60;;
17398;SDS011;8817;48.170;8.592;2023-02-03T01:47:53;4.40;;;4.30;;
17398;SDS011;8817;48.170;8.592;2023-02-03T01:50:24;4.37;;;4.30;;
17398;SDS011;8817;48.170;8.592;2023-02-03T01:52:55;4.63;;;4.43;;
17398;SDS011;8817;48.170;8.592;2023-02-03T01:55:24;4.70;;;4.60;;
17398;SDS011;8817;48.170;8.592;2023-02-03T01:57:54;4.50;;;4.40;;
17398;SDS011;8817;48.170;8.592;2023-02-03T02:00:24;4.60;;;4.50;;
17398;SDS011;8817;48.170;8.592;2023-02-03T02:02:52;4.70;;;4.60;;
17398;SDS011;8817;48.170;8.592;2023-02-03T02:05:21;5.10;;;4.90;;
17398;SDS011;8817;48.170;8.592;2023-02-03T02:07:55;4.60;;;4.50;;
17398;SDS011;8817;48.170;8.592;2023-02-03T02:10:23;5.00;;;4.90;;
17398;SDS011;8817;48.170;8.592;2023-02-03T02:12:51;4.80;;;4.70;;
17398;SDS011;8817;48.170;8.592;2023-02-03T02:15:20;4.83;;;4.63;;
17398;SDS011;8817;48.170;8.592;2023-02-03T02:18:05;4.77;;;4.60;;
17398;SDS011;8817;48.170;8.592;2023-02-03T02:26:53;4.67;;;4.57;;
17398;SDS011;8817;48.170;8.592;2023-02-03T02:29:32;4.40;;;4.30;;
17398;SDS011;8817;48.170;8.592;2023-02-03T02:32:21;4.60;;;4.50;;
17398;SDS011;8817;48.170;8.592;2023-02-03T02:35:00;4.10;;;4.10;;
17398;SDS011;8817;48.170;8.592;2023-02-03T02:37:35;4.30;;;4.20;;
17398;SDS011;8817;48.170;8.592;2023-02-03T02:40:13;4.40;;;4.30;;
17398;SDS011;8817;48.170;8.592;2023-02-03T02:42:50;4.30;;;4.30;;
17398;SDS011;8817;48.170;8.592;2023-02-03T02:45:26;4.60;;;4.50;;
17398;SDS011;8817;48.170;8.592;2023-02-03T02:47:58;4.40;;;4.30;;
17398;SDS011;8817;48.170;8.592;2023-02-03T02:50:30;4.50;;;4.40;;
17398;SDS011;8817;48.170;8.592;2023-02-03T02:53:02;4.43;;;4.33;;
17398;SDS011;8817;48.170;8.592;2023-02-03T02:55:31;4.80;;;4.60;;
17398;SDS011;8817;48.170;8.592;2023-02-03T02:58:01;4.10;;;4.10;;
17398;SDS011;8817;48.170;8.592;2023-02-03T03:00:33;4.50;;;4.40;;
17398;SDS011;8817;48.170;8.592;2023-02-03T03:03:09;4.60;;;4.50;;
17398;SDS011;8817;48.170;8.592;2023-02-03T03:05:39;4.37;;;4.33;;
17398;SDS011;8817;48.170;8.592;2023-02-03T03:08:08;4.50;;;4.40;;
17398;SDS011;8817;48.170;8.592;2023-02-03T03:10:39;4.53;;;4.43;;
17398;SDS011;8817;48.170;8.592;2023-02-03T03:13:09;4.50;;;4.40;;
17398;SDS011;8817;48.170;8.592;2023-02-03T03:15:40;4.50;;;4.40;;
17398;SDS011;8817;48.170;8.592;2023-02-03T03:18:12;4.60;;;4.50;;
17398;SDS011;8817;48.170;8.592;2023-02-03T03:20:45;4.70;;;4.60;;
17398;SDS011;8817;48.170;8.592;2023-02-03T03:23:17;4.53;;;4.40;;
17398;SDS011;8817;48.170;8.592;2023-02-03T03:25:48;4.60;;;4.50;;
17398;SDS011;8817;48.170;8.592;2023-02-03T03:28:22;4.47;;;4.37;;
17398;SDS011;8817;48.170;8.592;2023-02-03T03:31:05;4.80;;;4.70;;
17398;SDS011;8817;48.170;8.592;2023-02-03T03:33:33;4.47;;;4.40;;
17398;SDS011;8817;48.170;8.592;2023-02-03T03:36:01;4.70;;;4.60;;
17398;SDS011;8817;48.170;8.592;2023-02-03T03:38:35;4.60;;;4.50;;
17398;SDS011;8817;48.170;8.592;2023-02-03T03:41:06;4.67;;;4.57;;
17398;SDS011;8817;48.170;8.592;2023-02-03T03:43:38;4.80;;;4.70;;
17398;SDS011;8817;48.170;8.592;2023-02-03T03:46:09;4.40;;;4.40;;
17398;SDS011;8817;48.170;8.592;2023-02-03T03:48:41;4.80;;;4.70;;
17398;SDS011;8817;48.170;8.592;2023-02-03T03:51:13;4.30;;;4.30;;
17398;SDS011;8817;48.170;8.592;2023-02-03T03:53:43;4.90;;;4.80;;
17398;SDS011;8817;48.170;8.592;2023-02-03T03:56:14;4.80;;;4.70;;
17398;SDS011;8817;48.170;8.592;2023-02-03T03:58:44;5.10;;;4.73;;
17398;SDS011;8817;48.170;8.592;2023-02-03T04:01:14;4.90;;;4.80;;
17398;SDS011;8817;48.170;8.592;2023-02-03T04:03:43;5.30;;;4.90;;
17398;SDS011;8817;48.170;8.592;2023-02-03T04:06:13;4.80;;;4.70;;
17398;SDS011;8817;48.170;8.592;2023-02-03T04:08:40;4.87;;;4.77;;
17398;SDS011;8817;48.170;8.592;2023-02-03T04:11:07;4.70;;;4.60;;
17398;SDS011;8817;48.170;8.592;2023-02-03T04:13:34;4.80;;;4.70;;
17398;SDS011;8817;48.170;8.592;2023-02-03T04:16:01;5.13;;;4.73;;
17398;SDS011;8817;48.170;8.592;2023-02-03T04:18:28;4.83;;;4.73;;
17398;SDS011;8817;48.170;8.592;2023-02-03T04:20:56;5.03;;;4.93;;
17398;SDS011;8817;48.170;8.592;2023-02-03T04:23:23;5.07;;;4.93;;
17398;SDS011;8817;48.170;8.592;2023-02-03T04:25:50;5.30;;;5.17;;
17398;SDS011;8817;48.170;8.592;2023-02-03T04:28:17;5.10;;;5.00;;
17398;SDS011;8817;48.170;8.592;2023-02-03T04:30:44;5.30;;;4.97;;
17398;SDS011;8817;48.170;8.592;2023-02-03T04:33:11;5.00;;;4.90;;
17398;SDS011;8817;48.170;8.592;2023-02-03T04:35:38;4.60;;;4.50;;
17398;SDS011;8817;48.170;8.592;2023-02-03T04:38:06;4.90;;;4.80;;
17398;SDS011;8817;48.170;8.592;2023-02-03T04:40:33;5.27;;;5.07;;
17398;SDS011;8817;48.170;8.592;2023-02-03T04:43:04;4.60;;;4.50;;
17398;SDS011;8817;48.170;8.592;2023-02-03T04:45:32;4.80;;;4.70;;
17398;SDS011;8817;48.170;8.592;2023-02-03T04:47:59;4.80;;;4.70;;
17398;SDS011;8817;48.170;8.592;2023-02-03T04:50:26;4.67;;;4.50;;
17398;SDS011;8817;48.170;8.592;2023-02-03T04:52:52;4.80;;;4.70;;
17398;SDS011;8817;48.170;8.592;2023-02-03T04:55:21;4.67;;;4.57;;
17398;SDS011;8817;48.170;8.592;2023-02-03T04:57:47;4.60;;;4.50;;
17398;SDS011;8817;48.170;8.592;2023-02-03T05:00:14;4.60;;;4.50;;
17398;SDS011;8817;48.170;8.592;2023-02-03T05:02:42;4.87;;;4.77;;
17398;SDS011;8817;48.170;8.592;2023-02-03T05:05:08;5.10;;;5.00;;
17398;SDS011;8817;48.170;8.592;2023-02-03T05:07:35;4.73;;;4.63;;
17398;SDS011;8817;48.170;8.592;2023-02-03T05:10:02;4.70;;;4.60;;
17398;SDS011;8817;48.170;8.592;2023-02-03T05:12:31;4.50;;;4.40;;
17398;SDS011;8817;48.170;8.592;2023-02-03T05:14:58;4.60;;;4.50;;
17398;SDS011;8817;48.170;8.592;2023-02-03T05:17:25;4.90;;;4.80;;
17398;SDS011;8817;48.170;8.592;2023-02-03T05:19:52;4.60;;;4.50;;
17398;SDS011;8817;48.170;8.592;2023-02-03T05:22:19;4.80;;;4.70;;
17398;SDS011;8817;48.170;8.592;2023-02-03T05:24:46;4.77;;;4.67;;
17398;SDS011;8817;48.170;8.592;2023-02-03T05:27:13;4.70;;;4.60;;
17398;SDS011;8817;48.170;8.592;2023-02-03T05:29:41;4.80;;;4.70;;
17398;SDS011;8817;48.170;8.592;2023-02-03T05:32:08;4.70;;;4.60;;
17398;SDS011;8817;48.170;8.592;2023-02-03T05:34:34;4.70;;;4.60;;
17398;SDS011;8817;48.170;8.592;2023-02-03T05:37:01;4.50;;;4.40;;
17398;SDS011;8817;48.170;8.592;2023-02-03T05:39:29;4.67;;;4.57;;
17398;SDS011;8817;48.170;8.592;2023-02-03T05:41:55;4.53;;;4.43;;
17398;SDS011;8817;48.170;8.592;2023-02-03T05:44:22;5.33;;;4.87;;
17398;SDS011;8817;48.170;8.592;2023-02-03T05:46:52;4.70;;;4.60;;
17398;SDS011;8817;48.170;8.592;2023-02-03T05:49:20;4.70;;;4.60;;
17398;SDS011;8817;48.170;8.592;2023-02-03T05:51:48;4.60;;;4.50;;
17398;SDS011;8817;48.170;8.592;2023-02-03T05:54:15;4.63;;;4.53;;
17398;SDS011;8817;48.170;8.592;2023-02-03T05:56:42;4.80;;;4.60;;
17398;SDS011;8817;48.170;8.592;2023-02-03T05:59:09;4.67;;;4.47;;
17398;SDS011;8817;48.170;8.592;2023-02-03T06:01:36;4.80;;;4.60;;
17398;SDS011;8817;48.170;8.592;2023-02-03T06:04:04;4.87;;;4.57;;
17398;SDS011;8817;48.170;8.592;2023-02-03T06:06:31;5.10;;;4.90;;
17398;SDS011;8817;48.170;8.592;2023-02-03T06:08:59;5.20;;;5.10;;
17398;SDS011;8817;48.170;8.592;2023-02-03T06:11:26;4.93;;;4.80;;
17398;SDS011;8817;48.170;8.592;2023-02-03T06:13:53;4.63;;;4.53;;
17398;SDS011;8817;48.170;8.592;2023-02-03T06:16:22;4.97;;;4.83;;
17398;SDS011;8817;48.170;8.592;2023-02-03T06:18:49;5.10;;;4.90;;
17398;SDS011;8817;48.170;8.592;2023-02-03T06:21:18;5.00;;;4.90;;
17398;SDS011;8817;48.170;8.592;2023-02-03T06:23:45;5.13;;;5.03;;
17398;SDS011;8817;48.170;8.592;2023-02-03T06:26:13;5.20;;;5.10;;
17398;SDS011;8817;48.170;8.592;2023-02-03T06:28:40;5.10;;;5.00;;
17398;SDS011;8817;48.170;8.592;2023-02-03T06:31:06;5.17;;;5.07;;
17398;SDS011;8817;48.170;8.592;2023-02-03T06:33:33;5.07;;;4.97;;
17398;SDS011;8817;48.170;8.592;2023-02-03T06:36:00;5.87;;;5.67;;
17398;SDS011;8817;48.170;8.592;2023-02-03T06:38:29;5.40;;;5.30;;
17398;SDS011;8817;48.170;8.592;2023-02-03T06:40:55;5.30;;;5.10;;
17398;SDS011;8817;48.170;8.592;2023-02-03T06:43:22;5.33;;;5.23;;
17398;SDS011;8817;48.170;8.592;2023-02-03T06:45:49;5.80;;;5.60;;
17398;SDS011;8817;48.170;8.592;2023-02-03T06:48:16;5.40;;;5.30;;
17398;SDS011;8817;48.170;8.592;2023-02-03T06:50:43;5.40;;;5.30;;
17398;SDS011;8817;48.170;8.592;2023-02-03T06:53:10;5.13;;;4.93;;
17398;SDS011;8817;48.170;8.592;2023-02-03T06:55:38;5.70;;;5.50;;
17398;SDS011;8817;48.170;8.592;2023-02-03T06:58:05;5.60;;;5.30;;
17398;SDS011;8817;48.170;8.592;2023-02-03T07:00:32;5.80;;;5.40;;
17398;SDS011;8817;48.170;8.592;2023-02-03T07:02:59;5.50;;;5.30;;
17398;SDS011;8817;48.170;8.592;2023-02-03T07:05:26;5.20;;;5.10;;
17398;SDS011;8817;48.170;8.592;2023-02-03T07:07:53;5.10;;;5.00;;
17398;SDS011;8817;48.170;8.592;2023-02-03T07:10:20;5.10;;;5.00;;
17398;SDS011;8817;48.170;8.592;2023-02-03T07:12:49;5.43;;;5.20;;
17398;SDS011;8817;48.170;8.592;2023-02-03T07:15:16;4.80;;;4.70;;
17398;SDS011;8817;48.170;8.592;2023-02-03T07:17:43;5.10;;;5.00;;
17398;SDS011;8817;48.170;8.592;2023-02-03T07:20:12;5.00;;;4.90;;
17398;SDS011;8817;48.170;8.592;2023-02-03T07:22:39;5.10;;;5.00;;
17398;SDS011;8817;48.170;8.592;2023-02-03T07:25:07;4.87;;;4.77;;
17398;SDS011;8817;48.170;8.592;2023-02-03T07:27:34;4.63;;;4.53;;
17398;SDS011;8817;48.170;8.592;2023-02-03T07:30:03;4.90;;;4.80;;
17398;SDS011;8817;48.170;8.592;2023-02-03T07:32:31;4.70;;;4.60;;
17398;SDS011;8817;48.170;8.592;2023-02-03T07:34:58;4.90;;;4.73;;
17398;SDS011;8817;48.170;8.592;2023-02-03T07:37:25;4.63;;;4.53;;
17398;SDS011;8817;48.170;8.592;2023-02-03T07:39:52;4.90;;;4.80;;
17398;SDS011;8817;48.170;8.592;2023-02-03T07:42:19;5.27;;;5.07;;
17398;SDS011;8817;48.170;8.592;2023-02-03T07:44:46;4.90;;;4.80;;
17398;SDS011;8817;48.170;8.592;2023-02-03T07:47:14;5.47;;;5.27;;
17398;SDS011;8817;48.170;8.592;2023-02-03T07:49:41;5.60;;;5.30;;
17398;SDS011;8817;48.170;8.592;2023-02-03T07:52:08;5.40;;;5.20;;
17398;SDS011;8817;48.170;8.592;2023-02-03T07:54:35;5.13;;;4.90;;
17398;SDS011;8817;48.170;8.592;2023-02-03T07:57:01;5.37;;;5.07;;
17398;SDS011;8817;48.170;8.592;2023-02-03T07:59:28;5.00;;;4.80;;
17398;SDS011;8817;48.170;8.592;2023-02-03T08:01:55;5.13;;;4.90;;
17398;SDS011;8817;48.170;8.592;2023-02-03T08:04:23;4.83;;;4.70;;
17398;SDS011;8817;48.170;8.592;2023-02-03T08:06:50;4.87;;;4.67;;
17398;SDS011;8817;48.170;8.592;2023-02-03T08:09:17;4.90;;;4.70;;
17398;SDS011;8817;48.170;8.592;2023-02-03T08:11:44;5.40;;;5.00;;
17398;SDS011;8817;48.170;8.592;2023-02-03T08:14:12;5.33;;;5.03;;
17398;SDS011;8817;48.170;8.592;2023-02-03T08:16:39;5.17;;;4.97;;
17398;SDS011;8817;48.170;8.592;2023-02-03T08:19:07;5.20;;;4.90;;
17398;SDS011;8817;48.170;8.592;2023-02-03T08:21:35;5.50;;;5.10;;
17398;SDS011;8817;48.170;8.592;2023-02-03T08:24:02;5.37;;;5.07;;
17398;SDS011;8817;48.170;8.592;2023-02-03T08:26:29;4.90;;;4.70;;
17398;SDS011;8817;48.170;8.592;2023-02-03T08:28:56;5.00;;;4.80;;
17398;SDS011;8817;48.170;8.592;2023-02-03T08:31:23;5.40;;;4.97;;
17398;SDS011;8817;48.170;8.592;2023-02-03T08:33:50;5.50;;;5.20;;
17398;SDS011;8817;48.170;8.592;2023-02-03T08:36:16;5.07;;;4.87;;
17398;SDS011;8817;48.170;8.592;2023-02-03T08:38:45;5.10;;;4.80;;
17398;SDS011;8817;48.170;8.592;2023-02-03T08:41:13;5.60;;;5.20;;
17398;SDS011;8817;48.170;8.592;2023-02-03T08:43:42;4.97;;;4.70;;
17398;SDS011;8817;48.170;8.592;2023-02-03T08:46:10;5.23;;;5.03;;
17398;SDS011;8817;48.170;8.592;2023-02-03T08:48:37;5.43;;;5.00;;
17398;SDS011;8817;48.170;8.592;2023-02-03T08:51:08;5.33;;;5.07;;
17398;SDS011;8817;48.170;8.592;2023-02-03T08:53:36;4.97;;;4.70;;
17398;SDS011;8817;48.170;8.592;2023-02-03T08:56:05;4.80;;;4.60;;
17398;SDS011;8817;48.170;8.592;2023-02-03T08:58:32;4.90;;;4.80;;
17398;SDS011;8817;48.170;8.592;2023-02-03T09:01:04;4.93;;;4.77;;
17398;SDS011;8817;48.170;8.592;2023-02-03T09:03:32;5.03;;;4.90;;
17398;SDS011;8817;48.170;8.592;2023-02-03T09:05:59;4.70;;;4.60;;
17398;SDS011;8817;48.170;8.592;2023-02-03T09:08:26;4.60;;;4.50;;
17398;SDS011;8817;48.170;8.592;2023-02-03T09:10:53;5.10;;;4.70;;
17398;SDS011;8817;48.170;8.592;2023-02-03T09:13:22;5.07;;;4.77;;
17398;SDS011;8817;48.170;8.592;2023-02-03T09:15:49;4.53;;;4.43;;
17398;SDS011;8817;48.170;8.592;2023-02-03T09:18:16;4.37;;;4.27;;
17398;SDS011;8817;48.170;8.592;2023-02-03T09:20:43;4.87;;;4.67;;
17398;SDS011;8817;48.170;8.592;2023-02-03T09:23:10;4.70;;;4.60;;
17398;SDS011;8817;48.170;8.592;2023-02-03T09:25:36;4.67;;;4.47;;
17398;SDS011;8817;48.170;8.592;2023-02-03T09:28:03;4.80;;;4.70;;
17398;SDS011;8817;48.170;8.592;2023-02-03T09:30:32;4.83;;;4.73;;
17398;SDS011;8817;48.170;8.592;2023-02-03T09:32:58;4.67;;;4.57;;
17398;SDS011;8817;48.170;8.592;2023-02-03T09:35:25;4.37;;;4.27;;
17398;SDS011;8817;48.170;8.592;2023-02-03T09:37:54;4.80;;;4.60;;
17398;SDS011;8817;48.170;8.592;2023-02-03T09:40:21;4.53;;;4.43;;
17398;SDS011;8817;48.170;8.592;2023-02-03T09:42:59;4.80;;;4.60;;
17398;SDS011;8817;48.170;8.592;2023-02-03T09:45:33;4.67;;;4.43;;
17398;SDS011;8817;48.170;8.592;2023-02-03T09:48:02;5.00;;;4.80;;
17398;SDS011;8817;48.170;8.592;2023-02-03T09:50:35;4.30;;;4.30;;
17398;SDS011;8817;48.170;8.592;2023-02-03T09:53:05;4.60;;;4.50;;
17398;SDS011;8817;48.170;8.592;2023-02-03T09:55:38;4.80;;;4.70;;
17398;SDS011;8817;48.170;8.592;2023-02-03T09:58:08;4.30;;;4.20;;
17398;SDS011;8817;48.170;8.592;2023-02-03T10:00:41;4.60;;;4.50;;
17398;SDS011;8817;48.170;8.592;2023-02-03T10:03:13;5.63;;;5.00;;
17398;SDS011;8817;48.170;8.592;2023-02-03T10:05:51;4.20;;;4.17;;
17398;SDS011;8817;48.170;8.592;2023-02-03T10:08:39;4.63;;;4.53;;
17398;SDS011;8817;48.170;8.592;2023-02-03T10:11:19;4.50;;;4.40;;
17398;SDS011;8817;48.170;8.592;2023-02-03T10:13:57;4.60;;;4.50;;
17398;SDS011;8817;48.170;8.592;2023-02-03T10:16:37;4.30;;;4.20;;
17398;SDS011;8817;48.170;8.592;2023-02-03T10:19:12;4.70;;;4.60;;
17398;SDS011;8817;48.170;8.592;2023-02-03T10:21:45;4.53;;;4.33;;
17398;SDS011;8817;48.170;8.592;2023-02-03T10:24:18;4.50;;;4.40;;
17398;SDS011;8817;48.170;8.592;2023-02-03T10:26:48;4.27;;;4.17;;
17398;SDS011;8817;48.170;8.592;2023-02-03T10:29:17;4.30;;;4.20;;
17398;SDS011;8817;48.170;8.592;2023-02-03T10:31:47;4.30;;;4.20;;
17398;SDS011;8817;48.170;8.592;2023-02-03T10:34:14;4.30;;;4.20;;
17398;SDS011;8817;48.170;8.592;2023-02-03T10:36:50;4.03;;;4.03;;
17398;SDS011;8817;48.170;8.592;2023-02-03T10:39:22;4.20;;;4.10;;
17398;SDS011;8817;48.170;8.592;2023-02-03T10:41:55;4.50;;;4.30;;
17398;SDS011;8817;48.170;8.592;2023-02-03T10:44:24;3.80;;;3.70;;
17398;SDS011;8817;48.170;8.592;2023-02-03T10:46:58;4.00;;;3.80;;
17398;SDS011;8817;48.170;8.592;2023-02-03T10:49:25;4.10;;;4.00;;
17398;SDS011;8817;48.170;8.592;2023-02-03T10:51:53;7.30;;;3.90;;
17398;SDS011;8817;48.170;8.592;2023-02-03T10:54:28;4.00;;;3.90;;
17398;SDS011;8817;48.170;8.592;2023-02-03T10:57:00;3.90;;;3.80;;
17398;SDS011;8817;48.170;8.592;2023-02-03T10:59:30;4.30;;;4.10;;
17398;SDS011;8817;48.170;8.592;2023-02-03T11:02:00;4.20;;;4.10;;
17398;SDS011;8817;48.170;8.592;2023-02-03T11:04:33;3.77;;;3.77;;
17398;SDS011;8817;48.170;8.592;2023-02-03T11:07:01;3.97;;;3.87;;
17398;SDS011;8817;48.170;8.592;2023-02-03T11:09:32;3.93;;;3.83;;
17398;SDS011;8817;48.170;8.592;2023-02-03T11:12:05;4.00;;;3.90;;
17398;SDS011;8817;48.170;8.592;2023-02-03T11:14:36;4.00;;;3.90;;
17398;SDS011;8817;48.170;8.592;2023-02-03T11:17:07;3.80;;;3.70;;
17398;SDS011;8817;48.170;8.592;2023-02-03T11:19:35;3.60;;;3.50;;
17398;SDS011;8817;48.170;8.592;2023-02-03T11:22:04;3.60;;;3.60;;
17398;SDS011;8817;48.170;8.592;2023-02-03T11:24:32;3.50;;;3.50;;
17398;SDS011;8817;48.170;8.592;2023-02-03T11:27:04;3.83;;;3.83;;
17398;SDS011;8817;48.170;8.592;2023-02-03T11:29:35;3.60;;;3.60;;
17398;SDS011;8817;48.170;8.592;2023-02-03T11:32:13;4.03;;;3.93;;
17398;SDS011;8817;48.170;8.592;2023-02-03T11:34:45;3.70;;;3.70;;
17398;SDS011;8817;48.170;8.592;2023-02-03T11:37:28;3.60;;;3.60;;
17398;SDS011;8817;48.170;8.592;2023-02-03T11:40:11;3.87;;;3.87;;
17398;SDS011;8817;48.170;8.592;2023-02-03T11:42:59;3.77;;;3.77;;
17398;SDS011;8817;48.170;8.592;2023-02-03T11:45:29;3.87;;;3.77;;
17398;SDS011;8817;48.170;8.592;2023-02-03T11:48:05;3.70;;;3.70;;
17398;SDS011;8817;48.170;8.592;2023-02-03T11:50:42;3.33;;;3.33;;
17398;SDS011;8817;48.170;8.592;2023-02-03T11:53:15;3.90;;;3.80;;
17398;SDS011;8817;48.170;8.592;2023-02-03T11:55:54;4.00;;;3.90;;
17398;SDS011;8817;48.170;8.592;2023-02-03T12:01:41;3.60;;;3.60;;
17398;SDS011;8817;48.170;8.592;2023-02-03T12:07:29;3.83;;;3.77;;
17398;SDS011;8817;48.170;8.592;2023-02-03T12:10:21;3.57;;;3.57;;
17398;SDS011;8817;48.170;8.592;2023-02-03T12:13:05;4.00;;;3.90;;
17398;SDS011;8817;48.170;8.592;2023-02-03T12:15:52;3.67;;;3.63;;
17398;SDS011;8817;48.170;8.592;2023-02-03T12:18:31;3.83;;;3.83;;
17398;SDS011;8817;48.170;8.592;2023-02-03T12:21:11;3.60;;;3.60;;
17398;SDS011;8817;48.170;8.592;2023-02-03T12:23:58;4.10;;;4.00;;
17398;SDS011;8817;48.170;8.592;2023-02-03T12:26:34;4.27;;;4.17;;
17398;SDS011;8817;48.170;8.592;2023-02-03T12:29:09;3.80;;;3.80;;
17398;SDS011;8817;48.170;8.592;2023-02-03T12:31:41;4.23;;;4.13;;
17398;SDS011;8817;48.170;8.592;2023-02-03T12:34:15;3.90;;;3.80;;
17398;SDS011;8817;48.170;8.592;2023-02-03T12:36:48;3.93;;;3.83;;
17398;SDS011;8817;48.170;8.592;2023-02-03T12:39:23;4.10;;;4.00;;
17398;SDS011;8817;48.170;8.592;2023-02-03T12:41:54;4.40;;;4.20;;
17398;SDS011;8817;48.170;8.592;2023-02-03T12:44:28;4.10;;;4.10;;
17398;SDS011;8817;48.170;8.592;2023-02-03T12:47:01;3.80;;;3.80;;
17398;SDS011;8817;48.170;8.592;2023-02-03T12:49:34;3.90;;;3.80;;
17398;SDS011;8817;48.170;8.592;2023-02-03T12:52:10;4.13;;;3.97;;
17398;SDS011;8817;48.170;8.592;2023-02-03T12:54:43;3.97;;;3.93;;
17398;SDS011;8817;48.170;8.592;2023-02-03T12:57:19;3.77;;;3.77;;
17398;SDS011;8817;48.170;8.592;2023-02-03T12:59:56;4.53;;;4.30;;
17398;SDS011;8817;48.170;8.592;2023-02-03T13:02:34;4.40;;;4.30;;
17398;SDS011;8817;48.170;8.592;2023-02-03T13:05:08;4.53;;;4.23;;
17398;SDS011;8817;48.170;8.592;2023-02-03T13:07:47;4.33;;;4.23;;
17398;SDS011;8817;48.170;8.592;2023-02-03T13:10:20;4.40;;;4.30;;
17398;SDS011;8817;48.170;8.592;2023-02-03T13:12:52;4.30;;;4.20;;
17398;SDS011;8817;48.170;8.592;2023-02-03T13:15:23;4.30;;;4.20;;
17398;SDS011;8817;48.170;8.592;2023-02-03T13:17:55;4.20;;;4.10;;
17398;SDS011;8817;48.170;8.592;2023-02-03T13:20:26;4.10;;;4.00;;
17398;SDS011;8817;48.170;8.592;2023-02-03T13:22:56;4.20;;;4.00;;
17398;SDS011;8817;48.170;8.592;2023-02-03T13:25:24;4.20;;;4.10;;
17398;SDS011;8817;48.170;8.592;2023-02-03T13:28:06;4.20;;;4.10;;
17398;SDS011;8817;48.170;8.592;2023-02-03T13:30:49;4.30;;;4.10;;
17398;SDS011;8817;48.170;8.592;2023-02-03T13:39:37;4.27;;;4.17;;
17398;SDS011;8817;48.170;8.592;2023-02-03T13:42:27;4.07;;;4.03;;
17398;SDS011;8817;48.170;8.592;2023-02-03T13:44:58;4.63;;;4.43;;
17398;SDS011;8817;48.170;8.592;2023-02-03T13:47:28;3.87;;;3.87;;
17398;SDS011;8817;48.170;8.592;2023-02-03T13:49:57;5.47;;;4.33;;
17398;SDS011;8817;48.170;8.592;2023-02-03T13:52:28;4.70;;;4.50;;
17398;SDS011;8817;48.170;8.592;2023-02-03T13:55:02;4.30;;;4.10;;
17398;SDS011;8817;48.170;8.592;2023-02-03T13:57:33;4.80;;;4.40;;
17398;SDS011;8817;48.170;8.592;2023-02-03T14:00:02;4.20;;;4.07;;
17398;SDS011;8817;48.170;8.592;2023-02-03T14:02:41;4.50;;;4.30;;
17398;SDS011;8817;48.170;8.592;2023-02-03T14:26:32;4.00;;;3.90;;
17398;SDS011;8817;48.170;8.592;2023-02-03T14:29:04;4.50;;;4.20;;
17398;SDS011;8817;48.170;8.592;2023-02-03T14:31:40;4.70;;;4.20;;
17398;SDS011;8817;48.170;8.592;2023-02-03T14:34:26;3.80;;;3.70;;
17398;SDS011;8817;48.170;8.592;2023-02-03T14:37:11;4.10;;;4.00;;
17398;SDS011;8817;48.170;8.592;2023-02-03T14:42:48;4.20;;;4.10;;
17398;SDS011;8817;48.170;8.592;2023-02-03T14:45:33;4.10;;;4.00;;
17398;SDS011;8817;48.170;8.592;2023-02-03T14:48:19;4.40;;;4.20;;
17398;SDS011;8817;48.170;8.592;2023-02-03T14:51:00;4.43;;;4.27;;
17398;SDS011;8817;48.170;8.592;2023-02-03T14:53:38;4.00;;;3.90;;
17398;SDS011;8817;48.170;8.592;2023-02-03T14:56:16;4.20;;;4.00;;
17398;SDS011;8817;48.170;8.592;2023-02-03T14:58:50;4.90;;;4.70;;
17398;SDS011;8817;48.170;8.592;2023-02-03T15:01:26;4.13;;;4.00;;
17398;SDS011;8817;48.170;8.592;2023-02-03T15:04:19;5.35;;;4.85;;
17398;SDS011;8817;48.170;8.592;2023-02-03T15:06:49;4.53;;;4.23;;
17398;SDS011;8817;48.170;8.592;2023-02-03T15:09:20;4.07;;;3.97;;
17398;SDS011;8817;48.170;8.592;2023-02-03T15:11:53;4.20;;;4.10;;
17398;SDS011;8817;48.170;8.592;2023-02-03T15:14:21;4.10;;;4.00;;
17398;SDS011;8817;48.170;8.592;2023-02-03T15:16:53;4.27;;;4.17;;
17398;SDS011;8817;48.170;8.592;2023-02-03T15:19:23;5.03;;;4.63;;
17398;SDS011;8817;48.170;8.592;2023-02-03T15:21:52;4.60;;;4.33;;
17398;SDS011;8817;48.170;8.592;2023-02-03T15:24:20;4.40;;;4.30;;
17398;SDS011;8817;48.170;8.592;2023-02-03T15:26:50;4.30;;;4.20;;
17398;SDS011;8817;48.170;8.592;2023-02-03T15:29:19;4.70;;;4.23;;
17398;SDS011;8817;48.170;8.592;2023-02-03T15:32:00;4.03;;;3.93;;
17398;SDS011;8817;48.170;8.592;2023-02-03T15:34:32;4.37;;;4.27;;
17398;SDS011;8817;48.170;8.592;2023-02-03T15:37:05;4.20;;;4.10;;
17398;SDS011;8817;48.170;8.592;2023-02-03T15:39:37;4.30;;;4.20;;
17398;SDS011;8817;48.170;8.592;2023-02-03T15:42:12;4.60;;;4.30;;
17398;SDS011;8817;48.170;8.592;2023-02-03T15:44:46;4.57;;;4.37;;
17398;SDS011;8817;48.170;8.592;2023-02-03T15:47:20;4.60;;;4.50;;
17398;SDS011;8817;48.170;8.592;2023-02-03T15:49:54;4.50;;;4.30;;
17398;SDS011;8817;48.170;8.592;2023-02-03T15:52:26;4.20;;;4.10;;
17398;SDS011;8817;48.170;8.592;2023-02-03T15:54:59;4.50;;;4.30;;
17398;SDS011;8817;48.170;8.592;2023-02-03T15:57:33;4.10;;;4.00;;
17398;SDS011;8817;48.170;8.592;2023-02-03T16:00:07;4.07;;;3.97;;
17398;SDS011;8817;48.170;8.592;2023-02-03T16:02:40;4.20;;;4.10;;
17398;SDS011;8817;48.170;8.592;2023-02-03T16:05:18;4.37;;;4.27;;